International Virtual Aviation Organisation

Russian Federation and Kazakhstan MCD

 

Карточка аэропорта UAAA

Внимание!
Информация на этой странице в стадии наполнения.
Если вы не увидели какой-то информации, или заметили неточность - пожалуйста сообщите нам!
Спасибо!
Команда RU-STAFF
Название аэропортаАлматы
Название аэропорта (англ.)Almaty
Превышение2238 ft. (682.1 m.)
Координаты43°21.072', 77°1.5960000000001'
Высота перехода600
Эшелон переходаFL070
Коды ответчика3501-3517, 3401-3427
Зона ОрВДАлматы РПИ (UAAA)
Данные METARUAAA 241400Z 21003MPS 2900 BR FU SCT050 OVC100 05/02 Q1020 R88/65D NOSIG
Проноз погоды (TAF)UAAA 241100Z 2412/2512 22003MPS 3100 BR FU BKN011 OVC020CB TX08/2509Z TN01/2501Z TEMPO 2412/2416 35003G08MPS 1500 -SHRA BR BECMG 2416/2417 1200 -SHRA BR BKN005 OVC011CB TEMPO 2416/2504 28003MPS 0300 SHRA FG BKN002 OVC006CB TEMPO 2504/2506 36003MPS 2000 BR BKN011CB OVC100 FM250600 02004MPS 5000 BR FU BKN020CB BKN100
NOTAMshow/hide NOTAM
AWOS   TABLE

Информация о ВПП

ВПП Длина ВПП (м.) Покрытие Курс ВПП Частота ILS
05L4500Бетон51109.1
23R4500Бетон231111.3
05R4400Асфальтобетон51110.3
23L4400Асфальтобетон231108.1

Диспетчерские позиции

Позывной Наименование органа УВД Частота
UAAA_APPАлматы-Подход124.8
UAAA_TWRАлматы-Вышка119.4
UAAA_GNDАлматы-Руление121.7
UAAA_R_APPАлматы-Круг120.8



Спутниковое изображение